createdAt,value
2018-12-12T00:01:46.967Z,91.80
2018-12-12T00:04:17.858Z,92.10
2018-12-12T00:06:46.812Z,92.20
2018-12-12T00:09:15.582Z,92.30
2018-12-12T00:11:44.290Z,92.40
2018-12-12T00:14:12.957Z,92.50
2018-12-12T00:16:41.686Z,92.50
2018-12-12T00:19:10.463Z,92.60
2018-12-12T00:21:39.140Z,92.50
2018-12-12T00:24:07.858Z,92.60
2018-12-12T00:26:36.590Z,92.60
2018-12-12T00:29:05.282Z,92.40
2018-12-12T00:31:34.121Z,92.50
2018-12-12T00:34:02.831Z,92.70
2018-12-12T00:36:31.623Z,92.60
2018-12-12T00:39:00.280Z,92.40
2018-12-12T00:41:29.114Z,92.30
2018-12-12T00:43:57.791Z,92.30
2018-12-12T00:46:26.516Z,92.40
2018-12-12T00:48:55.295Z,92.40
2018-12-12T00:51:23.959Z,92.50
2018-12-12T00:53:52.719Z,92.50
2018-12-12T00:56:21.507Z,93.00
2018-12-12T00:58:50.226Z,92.70
2018-12-12T01:01:18.948Z,92.90
2018-12-12T01:03:47.760Z,92.90
2018-12-12T01:06:16.490Z,92.90
2018-12-12T01:08:45.254Z,93.10
2018-12-12T01:11:19.486Z,92.90
2018-12-12T01:13:48.326Z,92.70
2018-12-12T01:16:17.065Z,92.40
2018-12-12T01:18:45.781Z,92.30
2018-12-12T01:21:14.556Z,92.50
2018-12-12T01:23:43.298Z,92.20
2018-12-12T01:26:12.114Z,92.40
2018-12-12T01:28:40.765Z,92.60
2018-12-12T01:31:09.458Z,92.40
2018-12-12T01:33:38.210Z,92.40
2018-12-12T01:36:06.971Z,92.50
2018-12-12T01:38:35.639Z,92.30
2018-12-12T01:41:04.362Z,92.50
2018-12-12T01:43:33.115Z,92.30
2018-12-12T01:46:01.834Z,92.10
2018-12-12T01:48:30.521Z,92.10
2018-12-12T01:50:59.270Z,92.20
2018-12-12T01:53:28.004Z,92.30
2018-12-12T01:55:56.672Z,92.10
2018-12-12T01:58:25.411Z,92.10
2018-12-12T02:00:54.199Z,92.10
2018-12-12T02:03:23.054Z,92.20
2018-12-12T02:05:51.783Z,92.20
2018-12-12T02:08:20.751Z,92.20
2018-12-12T02:10:49.682Z,92.20
2018-12-12T02:13:29.910Z,92.20
2018-12-12T02:15:58.803Z,92.50
2018-12-12T02:18:27.554Z,92.60
2018-12-12T02:20:56.247Z,93.00
2018-12-12T02:23:25.045Z,93.00
2018-12-12T02:25:53.811Z,93.20
2018-12-12T02:28:22.586Z,93.10
2018-12-12T02:30:51.427Z,93.10
2018-12-12T02:33:20.123Z,93.00
2018-12-12T02:35:48.835Z,92.80
2018-12-12T02:38:17.611Z,92.80
2018-12-12T02:40:46.362Z,92.90
2018-12-12T02:43:15.124Z,92.80
2018-12-12T02:45:43.847Z,92.70
2018-12-12T02:48:14.586Z,92.80
2018-12-12T02:50:43.401Z,92.60
2018-12-12T02:53:12.137Z,92.50
2018-12-12T02:55:40.908Z,92.60
2018-12-12T02:58:09.662Z,92.50
2018-12-12T03:00:38.391Z,92.50
2018-12-12T03:03:07.135Z,92.60
2018-12-12T03:05:35.940Z,92.60
2018-12-12T03:08:04.728Z,92.70
2018-12-12T03:10:33.616Z,92.80
2018-12-12T03:13:02.325Z,92.80
2018-12-12T03:15:31.147Z,92.80
2018-12-12T03:17:59.913Z,92.90
2018-12-12T03:20:28.667Z,92.50
2018-12-12T03:22:57.470Z,92.40
2018-12-12T03:25:26.235Z,92.20
2018-12-12T03:27:54.900Z,92.30
2018-12-12T03:30:23.712Z,92.20
2018-12-12T03:32:52.439Z,92.20
2018-12-12T03:35:21.178Z,92.10
2018-12-12T03:37:49.855Z,92.10
2018-12-12T03:40:19.121Z,91.90
2018-12-12T03:42:48.038Z,92.00
2018-12-12T03:45:16.862Z,91.80
2018-12-12T03:47:45.617Z,91.90
2018-12-12T03:50:14.346Z,91.90
2018-12-12T03:52:43.179Z,92.00
2018-12-12T03:55:11.844Z,92.10
2018-12-12T03:57:40.590Z,91.90
2018-12-12T04:00:09.439Z,92.20
2018-12-12T04:02:38.806Z,92.00
2018-12-12T04:05:07.612Z,91.90
2018-12-12T04:07:36.446Z,91.90
2018-12-12T04:10:05.786Z,92.40
2018-12-12T04:12:34.526Z,92.50
2018-12-12T04:15:03.338Z,92.30
2018-12-12T04:17:32.130Z,92.50
2018-12-12T04:20:00.826Z,92.80
2018-12-12T04:22:29.932Z,92.50
2018-12-12T04:24:58.862Z,92.40
2018-12-12T04:27:27.602Z,92.60
2018-12-12T04:29:56.326Z,92.80
2018-12-12T04:32:25.035Z,92.50
2018-12-12T04:34:53.722Z,92.40
2018-12-12T04:37:22.448Z,92.50
2018-12-12T04:39:51.134Z,92.40
2018-12-12T04:42:19.901Z,92.50
2018-12-12T04:44:48.651Z,92.50
2018-12-12T04:47:17.382Z,92.40
2018-12-12T04:49:46.089Z,92.30
2018-12-12T04:52:14.806Z,92.00
2018-12-12T04:54:43.510Z,91.90
2018-12-12T04:57:12.243Z,92.10
2018-12-12T04:59:41.089Z,92.20
2018-12-12T05:02:09.828Z,92.00
2018-12-12T05:04:39.342Z,91.70
2018-12-12T05:07:08.132Z,91.70
2018-12-12T05:09:36.811Z,91.70
2018-12-12T05:12:05.617Z,92.00
2018-12-12T05:14:34.291Z,91.90
2018-12-12T05:17:03.061Z,91.70
2018-12-12T05:19:31.731Z,92.00
2018-12-12T05:22:00.382Z,91.60
2018-12-12T05:24:29.158Z,91.60
2018-12-12T05:26:58.007Z,91.50
2018-12-12T05:29:26.703Z,91.50
2018-12-12T05:31:55.783Z,91.70
2018-12-12T05:34:25.567Z,91.80
2018-12-12T05:36:57.211Z,92.00
2018-12-12T05:39:26.231Z,91.40
2018-12-12T05:41:55.013Z,91.30
2018-12-12T05:44:23.714Z,91.10
2018-12-12T05:46:52.495Z,91.20
2018-12-12T05:49:21.179Z,91.10
2018-12-12T05:51:50.169Z,91.10
2018-12-12T05:54:18.896Z,91.20
2018-12-12T05:56:52.375Z,91.00
2018-12-12T05:59:18.252Z,90.90
2018-12-12T06:01:47.015Z,90.80
2018-12-12T06:04:15.678Z,90.90
2018-12-12T06:06:44.406Z,90.60
2018-12-12T06:09:13.174Z,91.00
2018-12-12T06:11:42.104Z,90.70
2018-12-12T06:14:10.871Z,90.70
2018-12-12T06:16:39.631Z,90.60
2018-12-12T06:19:08.300Z,90.70
2018-12-12T06:21:37.038Z,90.90
2018-12-12T06:24:05.834Z,91.00
2018-12-12T06:26:37.556Z,90.90
2018-12-12T06:29:05.359Z,91.00
2018-12-12T06:31:34.166Z,90.50
2018-12-12T06:34:03.942Z,90.70
2018-12-12T06:36:32.711Z,90.70
2018-12-12T06:39:01.371Z,90.90
2018-12-12T06:41:31.970Z,90.90
2018-12-12T06:44:00.686Z,90.90
2018-12-12T06:46:29.454Z,91.00
2018-12-12T06:48:58.226Z,90.50
2018-12-12T06:51:27.038Z,90.60
2018-12-12T06:53:55.791Z,90.50
2018-12-12T06:56:24.539Z,90.50
2018-12-12T06:58:53.203Z,90.60
2018-12-12T07:01:22.014Z,90.40
2018-12-12T07:03:50.690Z,90.40
2018-12-12T07:06:19.444Z,90.60
2018-12-12T07:08:48.248Z,90.50
2018-12-12T07:11:17.006Z,90.50
2018-12-12T07:13:45.844Z,90.40
2018-12-12T07:16:14.687Z,90.30
2018-12-12T07:18:43.543Z,90.80
2018-12-12T07:21:12.364Z,90.90
2018-12-12T07:23:41.367Z,90.50
2018-12-12T07:26:10.090Z,91.10
2018-12-12T07:28:38.734Z,90.50
2018-12-12T07:31:07.530Z,90.20
2018-12-12T07:33:36.198Z,90.20
2018-12-12T07:36:05.043Z,90.10
2018-12-12T07:38:33.788Z,90.00
2018-12-12T07:41:02.517Z,90.30
2018-12-12T07:43:33.126Z,90.40
2018-12-12T07:46:22.864Z,90.80
2018-12-12T07:48:53.446Z,90.40
2018-12-12T07:51:27.984Z,90.20
2018-12-12T07:54:16.360Z,90.10
2018-12-12T07:56:45.184Z,90.10
2018-12-12T07:59:13.926Z,90.00
2018-12-12T08:01:43.152Z,89.80
2018-12-12T08:04:11.923Z,89.80
2018-12-12T08:06:40.711Z,90.30
2018-12-12T08:09:09.434Z,90.00
2018-12-12T08:11:39.335Z,90.10
2018-12-12T08:14:08.135Z,89.90
2018-12-12T08:16:37.006Z,90.10
2018-12-12T08:19:05.833Z,90.50
2018-12-12T08:21:34.622Z,90.40
2018-12-12T08:24:03.462Z,90.10
2018-12-12T08:26:32.192Z,90.20
2018-12-12T08:29:00.938Z,90.10
2018-12-12T08:31:29.925Z,89.80
2018-12-12T08:33:58.628Z,89.30
2018-12-12T08:36:27.430Z,89.40
2018-12-12T08:38:56.247Z,88.80
2018-12-12T08:41:25.024Z,88.90
2018-12-12T08:43:53.811Z,88.80
2018-12-12T08:46:22.632Z,88.70
2018-12-12T08:48:51.835Z,88.80
2018-12-12T08:51:20.613Z,88.60
2018-12-12T08:53:49.946Z,88.80
2018-12-12T08:56:18.673Z,89.10
2018-12-12T08:58:47.355Z,89.60
2018-12-12T09:01:16.162Z,89.80
2018-12-12T09:03:44.980Z,90.00
2018-12-12T09:06:13.698Z,89.10
2018-12-12T09:08:42.411Z,90.20
2018-12-12T09:11:11.162Z,89.10
2018-12-12T09:13:39.926Z,89.40
2018-12-12T09:16:08.766Z,89.70
2018-12-12T09:18:37.906Z,89.10
2018-12-12T09:21:06.703Z,88.80
2018-12-12T09:23:35.466Z,89.80
2018-12-12T09:26:04.250Z,89.20
2018-12-12T09:28:32.990Z,88.90
2018-12-12T09:31:03.734Z,89.10
2018-12-12T09:33:34.470Z,88.90
2018-12-12T09:36:05.411Z,89.30
2018-12-12T09:38:34.078Z,89.40
2018-12-12T09:41:02.795Z,89.10
2018-12-12T09:43:32.842Z,89.50
2018-12-12T09:46:01.831Z,89.70
2018-12-12T09:48:30.678Z,89.70
2018-12-12T09:51:06.882Z,89.80
2018-12-12T09:53:32.059Z,90.10
2018-12-12T09:56:00.903Z,90.40
2018-12-12T09:58:29.657Z,90.60
2018-12-12T10:00:58.483Z,90.40
2018-12-12T10:03:31.071Z,90.20
2018-12-12T10:05:58.038Z,90.30
2018-12-12T10:08:26.882Z,90.40
2018-12-12T10:10:55.617Z,90.50
2018-12-12T10:13:24.330Z,90.40
2018-12-12T10:15:53.066Z,90.40
2018-12-12T10:18:22.092Z,90.50
2018-12-12T10:20:50.891Z,90.40
2018-12-12T10:23:19.641Z,90.20
2018-12-12T10:25:48.402Z,90.20
2018-12-12T10:28:17.182Z,90.30
2018-12-12T10:30:46.047Z,90.80
2018-12-12T10:33:14.826Z,91.00
2018-12-12T10:35:43.576Z,90.90
2018-12-12T10:38:12.362Z,91.00
2018-12-12T10:40:41.179Z,91.10
2018-12-12T10:43:09.926Z,90.60
2018-12-12T10:45:38.867Z,90.70
2018-12-12T10:48:08.317Z,91.10
2018-12-12T10:50:37.149Z,90.80
2018-12-12T10:53:05.975Z,90.80
2018-12-12T10:55:35.777Z,90.50
2018-12-12T10:58:04.850Z,90.80
2018-12-12T11:00:37.864Z,90.20
2018-12-12T11:03:12.391Z,90.30
2018-12-12T11:05:41.154Z,90.10
2018-12-12T11:08:09.951Z,90.30
2018-12-12T11:10:38.763Z,90.10
2018-12-12T11:13:07.515Z,90.00
2018-12-12T11:15:36.299Z,90.20
2018-12-12T11:18:05.160Z,90.40
2018-12-12T11:20:33.943Z,90.80
2018-12-12T11:23:02.639Z,90.70
2018-12-12T11:25:31.398Z,90.70
2018-12-12T11:28:00.130Z,90.90
2018-12-12T11:30:28.956Z,90.50
2018-12-12T11:32:57.638Z,90.70
2018-12-12T11:35:26.457Z,90.70
2018-12-12T11:37:55.169Z,90.40
2018-12-12T11:40:23.830Z,90.80
2018-12-12T11:42:53.271Z,90.80
2018-12-12T11:45:23.922Z,90.80
2018-12-12T11:47:52.720Z,91.00
2018-12-12T11:50:21.523Z,90.90
2018-12-12T11:52:50.290Z,90.70
2018-12-12T11:55:19.030Z,90.50
2018-12-12T11:57:47.958Z,90.70
2018-12-12T12:00:16.667Z,90.70
2018-12-12T12:02:45.431Z,90.50
2018-12-12T12:05:14.100Z,90.70
2018-12-12T12:07:42.834Z,90.40
2018-12-12T12:10:11.916Z,90.40
2018-12-12T12:12:40.710Z,90.50
2018-12-12T12:15:09.541Z,90.90
2018-12-12T12:17:38.299Z,90.60
2018-12-12T12:20:07.106Z,90.80
2018-12-12T12:22:36.887Z,90.90
2018-12-12T12:25:05.791Z,90.80
2018-12-12T12:27:34.495Z,90.60
2018-12-12T12:30:03.630Z,90.50
2018-12-12T12:32:33.116Z,91.10
2018-12-12T12:35:01.984Z,90.60
2018-12-12T12:37:30.726Z,90.50
2018-12-12T12:39:59.544Z,90.50
2018-12-12T12:42:28.262Z,91.00
2018-12-12T12:44:57.026Z,90.40
2018-12-12T12:47:25.828Z,90.70
2018-12-12T12:49:54.502Z,90.40
2018-12-12T12:52:23.224Z,90.40
2018-12-12T12:54:51.894Z,91.00
2018-12-12T12:57:20.691Z,90.30
2018-12-12T12:59:49.439Z,90.30
2018-12-12T13:02:18.173Z,90.50
2018-12-12T13:04:46.859Z,90.70
2018-12-12T13:07:15.503Z,91.00
2018-12-12T13:09:44.252Z,90.60
2018-12-12T13:12:13.195Z,90.90
2018-12-12T13:14:42.111Z,92.00
2018-12-12T13:17:10.795Z,91.80
2018-12-12T13:19:39.551Z,91.10
2018-12-12T13:22:08.322Z,91.20
2018-12-12T13:24:38.030Z,91.90
2018-12-12T13:27:06.769Z,91.00
2018-12-12T13:29:35.668Z,91.20
2018-12-12T13:32:04.440Z,91.20
2018-12-12T13:34:33.147Z,91.20
2018-12-12T13:37:01.819Z,91.10
2018-12-12T13:39:30.538Z,91.40
2018-12-12T13:42:01.226Z,91.20
2018-12-12T13:44:30.112Z,91.30
2018-12-12T13:46:58.943Z,91.70
2018-12-12T13:49:27.731Z,91.70
2018-12-12T13:51:56.571Z,91.80
2018-12-12T13:54:25.307Z,91.80
2018-12-12T13:56:53.979Z,91.50
2018-12-12T13:59:22.682Z,91.50
2018-12-12T14:01:51.415Z,91.40
2018-12-12T14:04:22.861Z,91.30
2018-12-12T14:06:50.883Z,91.10
2018-12-12T14:09:20.569Z,91.40
2018-12-12T14:11:49.454Z,91.60
2018-12-12T14:14:18.195Z,91.40
2018-12-12T14:16:46.934Z,90.80
2018-12-12T14:19:15.721Z,90.90
2018-12-12T14:21:44.430Z,90.90
2018-12-12T14:24:13.166Z,91.10
2018-12-12T14:26:41.891Z,90.70
2018-12-12T14:29:10.649Z,90.60
2018-12-12T14:31:39.391Z,91.00
2018-12-12T14:34:08.178Z,90.90
2018-12-12T14:36:36.913Z,90.90
2018-12-12T14:39:07.044Z,90.60
2018-12-12T14:41:36.710Z,90.10
2018-12-12T14:44:05.449Z,90.40
2018-12-12T14:46:34.307Z,90.20
2018-12-12T14:49:03.001Z,90.40
2018-12-12T14:51:31.762Z,90.70
2018-12-12T14:54:00.531Z,90.60
2018-12-12T14:56:29.359Z,90.60
2018-12-12T14:58:58.013Z,90.20
2018-12-12T15:01:26.771Z,90.80
2018-12-12T15:03:55.720Z,90.60
2018-12-12T15:06:24.418Z,90.80
2018-12-12T15:08:53.197Z,90.80
2018-12-12T15:11:21.826Z,90.90
2018-12-12T15:13:50.620Z,90.80
2018-12-12T15:16:19.273Z,91.00
2018-12-12T15:18:47.937Z,91.20
2018-12-12T15:21:16.644Z,91.00
2018-12-12T15:23:45.415Z,91.00
2018-12-12T15:26:14.179Z,90.90
2018-12-12T15:28:42.906Z,90.80
2018-12-12T15:31:11.675Z,90.80
2018-12-12T15:33:40.345Z,90.40
2018-12-12T15:36:09.050Z,90.60
2018-12-12T15:38:37.723Z,90.50
2018-12-12T15:41:06.546Z,90.40
2018-12-12T15:43:35.314Z,90.50
2018-12-12T15:46:04.095Z,91.00
2018-12-12T15:48:32.895Z,90.60
2018-12-12T15:51:01.672Z,90.70
2018-12-12T15:53:30.529Z,90.90
2018-12-12T15:55:59.318Z,90.50
2018-12-12T15:58:28.125Z,90.60
2018-12-12T16:00:57.090Z,90.70
2018-12-12T16:03:25.758Z,90.60
2018-12-12T16:05:54.450Z,90.40
2018-12-12T16:08:23.179Z,90.40
2018-12-12T16:10:53.002Z,90.40
2018-12-12T16:13:21.767Z,90.70
2018-12-12T16:15:50.551Z,90.70
2018-12-12T16:18:19.308Z,90.90
2018-12-12T16:20:48.067Z,90.70
2018-12-12T16:23:16.921Z,91.00
2018-12-12T16:25:45.811Z,91.70
2018-12-12T16:28:14.543Z,91.50
2018-12-12T16:30:43.277Z,91.30
2018-12-12T16:33:12.127Z,91.30
2018-12-12T16:35:40.895Z,90.90
2018-12-12T16:38:09.769Z,91.20
2018-12-12T16:40:38.500Z,91.60
2018-12-12T16:43:07.279Z,91.60
2018-12-12T16:45:38.003Z,91.30
2018-12-12T16:48:06.779Z,90.90
2018-12-12T16:50:35.462Z,91.20
2018-12-12T16:53:04.275Z,91.30
2018-12-12T16:55:33.039Z,91.40
2018-12-12T16:58:01.733Z,91.30
2018-12-12T17:00:30.566Z,91.30
2018-12-12T17:02:59.350Z,90.90
2018-12-12T17:05:28.184Z,91.00
2018-12-12T17:07:56.998Z,91.00
2018-12-12T17:10:25.663Z,91.50
2018-12-12T17:12:54.315Z,91.00
2018-12-12T17:15:23.144Z,91.40
2018-12-12T17:17:51.842Z,91.20
2018-12-12T17:20:20.595Z,91.10
2018-12-12T17:22:49.225Z,91.00
2018-12-12T17:25:17.950Z,91.00
2018-12-12T17:27:46.740Z,91.40
2018-12-12T17:30:15.572Z,91.10
2018-12-12T17:32:44.308Z,91.10
2018-12-12T17:35:13.115Z,91.30
2018-12-12T17:37:41.789Z,90.90
2018-12-12T17:40:10.583Z,90.60
2018-12-12T17:42:39.419Z,90.70
2018-12-12T17:45:08.178Z,90.40
2018-12-12T17:47:38.190Z,90.50
2018-12-12T17:50:07.059Z,90.20
2018-12-12T17:52:35.807Z,90.80
2018-12-12T17:55:05.914Z,90.30
2018-12-12T17:57:36.067Z,90.40
2018-12-12T18:00:05.474Z,90.90
2018-12-12T18:02:36.148Z,90.60
2018-12-12T18:05:21.755Z,90.70
2018-12-12T18:07:50.562Z,90.50
2018-12-12T18:10:19.291Z,90.70
2018-12-12T18:12:48.271Z,91.00
2018-12-12T18:15:18.946Z,90.70
2018-12-12T18:17:49.646Z,90.70
2018-12-12T18:20:18.367Z,90.70
2018-12-12T18:22:47.144Z,90.80
2018-12-12T18:25:17.792Z,90.70
2018-12-12T18:27:46.534Z,90.30
2018-12-12T18:30:15.278Z,90.70
2018-12-12T18:32:45.976Z,90.50
2018-12-12T18:35:21.957Z,90.80
2018-12-12T18:37:50.906Z,90.80
2018-12-12T18:40:20.815Z,90.70
2018-12-12T18:42:51.567Z,90.70
2018-12-12T18:45:20.303Z,90.50
2018-12-12T18:47:49.138Z,91.10
2018-12-12T18:50:21.327Z,91.10
2018-12-12T18:52:51.988Z,91.00
2018-12-12T18:55:20.798Z,91.30
2018-12-12T18:57:50.616Z,91.10
2018-12-12T19:00:19.386Z,91.40
2018-12-12T19:02:48.208Z,91.80
2018-12-12T19:05:16.909Z,91.30
2018-12-12T19:07:45.689Z,91.40
2018-12-12T19:10:14.390Z,91.10
2018-12-12T19:12:43.203Z,91.00
2018-12-12T19:15:11.990Z,91.80
2018-12-12T19:17:40.821Z,91.40
2018-12-12T19:20:09.643Z,91.70
2018-12-12T19:22:38.531Z,91.90
2018-12-12T19:25:07.294Z,92.10
2018-12-12T19:27:36.245Z,92.00
2018-12-12T19:30:05.433Z,92.10
2018-12-12T19:32:34.238Z,92.50
2018-12-12T19:35:03.610Z,92.40
2018-12-12T19:37:32.275Z,92.70
2018-12-12T19:40:01.054Z,92.30
2018-12-12T19:42:31.650Z,92.40
2018-12-12T19:45:00.414Z,91.70
2018-12-12T19:47:29.120Z,92.20
2018-12-12T19:49:57.841Z,92.40
2018-12-12T19:52:27.678Z,92.70
2018-12-12T19:54:56.386Z,92.60
2018-12-12T19:57:25.170Z,92.30
2018-12-12T19:59:53.891Z,92.10
2018-12-12T20:02:22.667Z,92.10
2018-12-12T20:04:51.411Z,92.00
2018-12-12T20:07:20.141Z,92.20
2018-12-12T20:09:48.809Z,91.90
2018-12-12T20:12:17.575Z,92.10
2018-12-12T20:14:46.389Z,91.80
2018-12-12T20:17:15.173Z,91.70
2018-12-12T20:19:43.987Z,91.90
2018-12-12T20:22:13.806Z,92.30
2018-12-12T20:24:42.631Z,92.30
2018-12-12T20:27:11.434Z,92.80
2018-12-12T20:29:40.199Z,92.50
2018-12-12T20:32:08.998Z,92.60
2018-12-12T20:34:37.677Z,92.80
2018-12-12T20:37:07.531Z,92.80
2018-12-12T20:39:36.202Z,92.40
2018-12-12T20:42:04.987Z,92.40
2018-12-12T20:44:33.839Z,92.90
2018-12-12T20:47:02.631Z,93.00
2018-12-12T20:49:31.439Z,93.10
2018-12-12T20:52:02.611Z,93.20
2018-12-12T20:54:31.397Z,93.30
2018-12-12T20:57:00.090Z,93.40
2018-12-12T20:59:28.852Z,93.30
2018-12-12T21:01:57.560Z,93.40
2018-12-12T21:04:26.419Z,93.20
2018-12-12T21:06:55.171Z,93.20
2018-12-12T21:09:23.937Z,93.00
2018-12-12T21:11:53.193Z,92.90
2018-12-12T21:14:22.020Z,93.10
2018-12-12T21:16:50.783Z,93.20
2018-12-12T21:19:19.656Z,93.20
2018-12-12T21:21:48.302Z,93.80
2018-12-12T21:24:17.879Z,93.40
2018-12-12T21:26:46.611Z,93.40
2018-12-12T21:29:15.270Z,93.50
2018-12-12T21:31:44.033Z,93.50
2018-12-12T21:34:12.774Z,93.40
2018-12-12T21:36:41.510Z,93.30
2018-12-12T21:39:10.295Z,93.50
2018-12-12T21:41:40.138Z,93.40
2018-12-12T21:44:12.448Z,93.10
2018-12-12T21:46:41.203Z,93.10
2018-12-12T21:49:09.937Z,93.10
2018-12-12T21:51:39.453Z,92.60
2018-12-12T21:54:08.223Z,93.00
2018-12-12T21:56:36.935Z,93.50
2018-12-12T21:59:05.669Z,93.10
2018-12-12T22:01:34.372Z,93.00
2018-12-12T22:04:03.097Z,92.80
2018-12-12T22:06:31.883Z,92.90
2018-12-12T22:09:04.510Z,92.70
2018-12-12T22:11:35.203Z,92.50
2018-12-12T22:14:04.216Z,92.30
2018-12-12T22:16:33.182Z,92.50
2018-12-12T22:19:01.856Z,92.40
2018-12-12T22:21:30.564Z,92.00
2018-12-12T22:23:59.310Z,91.80
2018-12-12T22:26:27.966Z,92.50
2018-12-12T22:28:56.730Z,92.50
2018-12-12T22:31:25.518Z,92.10
2018-12-12T22:33:54.253Z,92.20
2018-12-12T22:36:23.054Z,92.20
2018-12-12T22:38:51.794Z,92.50
2018-12-12T22:41:20.515Z,92.60
2018-12-12T22:43:49.250Z,92.50
2018-12-12T22:46:18.070Z,92.50
2018-12-12T22:48:46.744Z,92.30
2018-12-12T22:51:15.529Z,92.50
2018-12-12T22:53:44.239Z,92.40
2018-12-12T22:56:12.991Z,92.50
2018-12-12T22:58:41.716Z,92.10
2018-12-12T23:01:12.608Z,92.20
2018-12-12T23:03:43.260Z,92.40
2018-12-12T23:06:11.962Z,92.40
2018-12-12T23:08:40.786Z,92.50
2018-12-12T23:11:09.694Z,92.00
2018-12-12T23:13:38.429Z,92.00
2018-12-12T23:16:07.258Z,92.00
2018-12-12T23:18:36.021Z,92.30
2018-12-12T23:21:04.848Z,92.10
2018-12-12T23:23:33.612Z,92.00
2018-12-12T23:26:02.622Z,92.10
2018-12-12T23:28:31.454Z,92.20
2018-12-12T23:31:00.303Z,92.10
2018-12-12T23:33:29.015Z,91.80
2018-12-12T23:35:57.782Z,92.10
2018-12-12T23:38:26.483Z,91.90
2018-12-12T23:40:55.158Z,92.10
2018-12-12T23:43:23.856Z,92.30
2018-12-12T23:45:52.634Z,92.20
2018-12-12T23:48:21.364Z,92.20
2018-12-12T23:50:50.078Z,92.10
2018-12-12T23:53:18.795Z,92.10
2018-12-12T23:55:47.521Z,92.00
2018-12-12T23:58:16.207Z,92.40
